KWMC/WMC METAR and TAF weather

Enter ICAO airport designator
Station Type Date Time Source
KWMC METAR 2019/06/27 07:56 UTC NOAA

KWMC 270756Z AUTO 28016KT 10SM CLR 17/M02 A2998 RMK AO2 SLP105 T01671017 402890100


Station Type Date Time Source
KWMC Decoded METAR 2019/06/27 07:56 UTC NOAA

WINNEMUCCA MUNICIPAL AIRPORT, NV, United States (KWMC) 40-54N 117-48W 1310M
Jun 27, 2019 - 03:56 AM EDT / 2019.06.27 0756 UTC
Wind: from the W (280 degrees) at 18 MPH (16 KT):0
Visibility: 10 mile(s):0
Sky conditions: clear
Temperature: 62.1 F (16.7 C)
Dew Point: 28.9 F (-1.7 C)
Relative Humidity: 28%
Pressure (altimeter): 29.98 in. Hg (1015 hPa)
ob: KWMC 270756Z AUTO 28016KT 10SM CLR 17/M02 A2998 RMK AO2 SLP105 T01671017 402890100
cycle: 8

Station Type Date Time Source
KWMC TAF 2019/06/27 06:22 UTC NOAA

TAF KWMC 270520Z 2706/2806 VRB06KT P6SM SCT200
FM271900 25018G28KT P6SM SCT120 BKN200

Example: see airport list